Time;durP1;ratioP1;P1;durP2;ratioP2;P2;SDS_P1;SDS_P2;PMS_P1;PMS_P2;Temp;Humidity;BMP_temperature;BMP_pressure;BME280_temperature;BME280_humidity;BME280_pressure;Samples;Min_cycle;Max_cycle;Signal;HPM_P1;HPM_P2
2023/01/30 00:00:35;;;;;;;47.25;20.10;;;;;;;;;;5051214;28;20092;-84
2023/01/30 00:03:01;;;;;;;38.15;18.63;;;;;;;;;;5057540;28;20068;-84
2023/01/30 00:05:28;;;;;;;46.55;19.35;;;;;;;;;;5067610;28;20500;-84
2023/01/30 00:07:54;;;;;;;42.25;18.98;;;;;;;;;;5069324;28;20057;-84
2023/01/30 00:10:20;;;;;;;42.40;17.65;;;;;;;;;;5071116;28;20067;-84
2023/01/30 00:12:47;;;;;;;48.67;18.95;;;;;;;;;;5070987;28;20559;-84
2023/01/30 00:15:13;;;;;;;42.08;19.05;;;;;;;;;;5067438;28;20131;-84
2023/01/30 00:17:39;;;;;;;42.53;19.58;;;;;;;;;;5070563;28;20148;-84
2023/01/30 00:20:06;;;;;;;43.28;19.60;;;;;;;;;;5070916;28;20500;-84
2023/01/30 00:22:35;;;;;;;37.88;17.95;;;;;;;;;;5070311;28;20176;-84
2023/01/30 00:25:01;;;;;;;44.63;17.30;;;;;;;;;;5067787;28;20038;-84
2023/01/30 00:27:28;;;;;;;38.30;17.58;;;;;;;;;;5070169;28;20053;-84
2023/01/30 00:29:55;;;;;;;38.97;16.80;;;;;;;;;;5070346;28;20550;-84
2023/01/30 00:32:28;;;;;;;39.85;17.08;;;;;;;;;;5060082;28;20133;-84
2023/01/30 00:34:54;;;;;;;40.25;17.75;;;;;;;;;;5056475;28;20053;-84
2023/01/30 00:37:21;;;;;;;43.05;17.70;;;;;;;;;;5069560;28;20111;-84
2023/01/30 00:39:47;;;;;;;40.13;16.95;;;;;;;;;;5065792;28;20059;-84
2023/01/30 00:47:45;;;;;;;35.30;16.20;;;;;;;;;;5069469;28;20049;-84
2023/01/30 00:50:11;;;;;;;35.25;15.13;;;;;;;;;;5053941;28;20080;-84
2023/01/30 00:52:38;;;;;;;33.63;14.93;;;;;;;;;;5050103;28;20539;-84
2023/01/30 00:55:04;;;;;;;40.45;15.38;;;;;;;;;;5060127;28;20053;-84
2023/01/30 00:57:31;;;;;;;37.33;14.57;;;;;;;;;;5067206;28;20448;-84
2023/01/30 00:59:57;;;;;;;34.83;15.25;;;;;;;;;;5072039;28;20083;-84
2023/01/30 01:02:23;;;;;;;31.25;13.95;;;;;;;;;;5070868;28;20598;-84
2023/01/30 01:04:50;;;;;;;30.20;12.65;;;;;;;;;;5068685;28;20050;-84
2023/01/30 01:07:16;;;;;;;29.88;13.00;;;;;;;;;;5066689;28;20585;-84
2023/01/30 01:09:42;;;;;;;26.40;12.45;;;;;;;;;;5069056;28;20056;-84
2023/01/30 01:12:08;;;;;;;35.25;12.77;;;;;;;;;;5067821;28;20144;-84
2023/01/30 01:14:35;;;;;;;29.80;12.18;;;;;;;;;;5070723;28;20055;-84
2023/01/30 01:17:01;;;;;;;23.80;11.95;;;;;;;;;;5068197;28;20073;-84
2023/01/30 01:19:28;;;;;;;31.70;12.35;;;;;;;;;;5070279;28;20136;-84
2023/01/30 01:21:54;;;;;;;22.25;11.20;;;;;;;;;;5071157;28;20077;-84
2023/01/30 01:24:21;;;;;;;26.52;11.18;;;;;;;;;;5057825;28;20169;-84
2023/01/30 01:26:47;;;;;;;25.88;11.02;;;;;;;;;;5063008;28;20162;-84
2023/01/30 01:29:15;;;;;;;29.23;10.93;;;;;;;;;;5049061;28;20052;-84
2023/01/30 01:31:41;;;;;;;20.85;10.38;;;;;;;;;;5067852;28;20479;-84
2023/01/30 01:34:08;;;;;;;28.60;10.77;;;;;;;;;;5069589;28;20060;-84
2023/01/30 01:36:34;;;;;;;28.05;10.32;;;;;;;;;;5062214;28;20077;-84
2023/01/30 01:39:18;;;;;;;24.00;10.50;;;;;;;;;;5068315;28;20088;-84
2023/01/30 01:41:45;;;;;;;26.67;11.25;;;;;;;;;;5070108;28;20087;-84
2023/01/30 01:44:12;;;;;;;27.02;11.10;;;;;;;;;;5069231;28;20055;-84
2023/01/30 01:46:58;;;;;;;27.55;10.00;;;;;;;;;;5065226;28;20057;-84
2023/01/30 01:49:28;;;;;;;27.63;9.73;;;;;;;;;;5068541;28;20053;-84
2023/01/30 01:51:55;;;;;;;26.20;10.73;;;;;;;;;;5068964;28;20148;-84
2023/01/30 01:54:28;;;;;;;23.17;9.20;;;;;;;;;;5069830;28;20049;-84
2023/01/30 01:56:54;;;;;;;21.13;9.35;;;;;;;;;;5072290;28;20143;-85
2023/01/30 01:59:24;;;;;;;23.80;10.27;;;;;;;;;;5086417;28;20064;-85
2023/01/30 02:01:53;;;;;;;28.90;8.90;;;;;;;;;;5080869;28;20063;-84
2023/01/30 02:07:09;;;;;;;27.00;8.68;;;;;;;;;;5076341;28;20044;-84
2023/01/30 02:09:36;;;;;;;27.40;9.88;;;;;;;;;;5071088;28;20056;-84
2023/01/30 02:12:04;;;;;;;26.90;9.77;;;;;;;;;;5078652;28;20029;-84
2023/01/30 02:14:32;;;;;;;24.52;9.30;;;;;;;;;;5075513;28;20101;-83
2023/01/30 02:16:58;;;;;;;24.98;8.43;;;;;;;;;;5073919;28;20151;-83
2023/01/30 02:19:33;;;;;;;22.40;8.95;;;;;;;;;;5072472;28;20053;-83
2023/01/30 02:22:12;;;;;;;25.85;8.75;;;;;;;;;;5073128;28;20048;-83
2023/01/30 02:24:38;;;;;;;27.30;9.18;;;;;;;;;;5072821;28;20053;-83
2023/01/30 02:27:08;;;;;;;29.00;9.30;;;;;;;;;;5073973;28;20076;-83
2023/01/30 02:29:41;;;;;;;21.90;8.23;;;;;;;;;;5072977;28;20057;-83
2023/01/30 02:32:19;;;;;;;24.00;8.75;;;;;;;;;;5058303;28;20698;-82
2023/01/30 02:34:45;;;;;;;24.23;8.35;;;;;;;;;;5070214;28;20068;-82
2023/01/30 02:37:27;;;;;;;23.30;8.40;;;;;;;;;;5068993;28;20052;-82
2023/01/30 02:40:09;;;;;;;26.27;9.00;;;;;;;;;;5068495;28;20132;-82
2023/01/30 02:42:45;;;;;;;19.35;7.82;;;;;;;;;;5070213;28;20132;-82
2023/01/30 02:45:11;;;;;;;21.52;8.32;;;;;;;;;;5065939;28;20681;-82
2023/01/30 02:47:42;;;;;;;26.17;8.40;;;;;;;;;;5065798;28;20147;-82
2023/01/30 02:50:12;;;;;;;23.88;8.05;;;;;;;;;;5065526;28;20115;-82
2023/01/30 02:52:39;;;;;;;25.60;8.07;;;;;;;;;;5070747;28;20596;-82
2023/01/30 02:55:08;;;;;;;20.67;8.32;;;;;;;;;;5068365;28;20045;-81
2023/01/30 02:57:35;;;;;;;24.00;7.47;;;;;;;;;;5069045;28;20092;-82
2023/01/30 03:00:10;;;;;;;20.98;7.80;;;;;;;;;;5066446;28;20057;-81
2023/01/30 03:03:06;;;;;;;20.85;7.93;;;;;;;;;;5066397;28;20053;-81
2023/01/30 03:05:54;;;;;;;21.30;7.40;;;;;;;;;;5065554;28;20068;-81
2023/01/30 03:24:32;;;;;;;18.85;6.78;;;;;;;;;;5029568;28;20034;-81
2023/01/30 03:27:04;;;;;;;19.98;6.65;;;;;;;;;;5063404;28;20646;-81
2023/01/30 03:29:30;;;;;;;19.05;7.03;;;;;;;;;;5052290;28;20489;-81
2023/01/30 03:31:57;;;;;;;21.73;6.95;;;;;;;;;;5047771;28;20105;-81
2023/01/30 03:34:23;;;;;;;20.42;6.68;;;;;;;;;;5033620;28;20058;-80
2023/01/30 03:36:50;;;;;;;25.10;7.35;;;;;;;;;;5030682;28;20068;-81
2023/01/30 03:39:19;;;;;;;21.23;6.43;;;;;;;;;;5024340;28;20058;-80
2023/01/30 03:41:46;;;;;;;25.20;6.05;;;;;;;;;;5044660;28;20509;-80
2023/01/30 03:44:12;;;;;;;30.15;7.28;;;;;;;;;;5032557;28;20437;-80
2023/01/30 03:46:38;;;;;;;22.80;6.25;;;;;;;;;;5031666;28;20054;-81
2023/01/30 03:49:04;;;;;;;18.15;6.15;;;;;;;;;;5029495;28;20516;-80
2023/01/30 03:51:31;;;;;;;19.83;5.65;;;;;;;;;;5030764;28;20058;-81
2023/01/30 03:53:57;;;;;;;21.65;5.70;;;;;;;;;;5031198;28;20060;-81
2023/01/30 03:56:24;;;;;;;18.30;5.63;;;;;;;;;;5023833;28;20061;-81
2023/01/30 04:08:34;;;;;;;15.27;4.32;;;;;;;;;;4928455;28;20563;-80
2023/01/30 04:18:11;;;;;;;21.55;4.35;;;;;;;;;;4933359;28;20559;-81
2023/01/30 04:20:38;;;;;;;14.38;4.60;;;;;;;;;;4931316;29;20306;-81
2023/01/30 04:23:04;;;;;;;17.20;4.20;;;;;;;;;;4980369;28;21021;-81
2023/01/30 04:25:30;;;;;;;16.08;3.53;;;;;;;;;;4986871;28;20062;-81
2023/01/30 04:27:57;;;;;;;13.30;3.90;;;;;;;;;;4988639;28;20576;-81
2023/01/30 04:30:23;;;;;;;13.45;3.35;;;;;;;;;;4979601;28;20570;-81
2023/01/30 04:32:49;;;;;;;14.43;3.60;;;;;;;;;;4987222;28;20272;-82
2023/01/30 04:35:16;;;;;;;13.43;3.40;;;;;;;;;;4987533;28;20478;-81
2023/01/30 04:37:42;;;;;;;11.25;3.30;;;;;;;;;;4989717;28;20046;-81
2023/01/30 04:48:23;;;;;;;;;;;;;;;;;;5032147;28;20659;-82
2023/01/30 04:50:51;;;;;;;14.18;4.35;;;;;;;;;;5034926;28;44209;-81
2023/01/30 04:56:45;;;;;;;21.23;3.95;;;;;;;;;;4987332;28;20102;-81
2023/01/30 04:59:14;;;;;;;12.75;3.00;;;;;;;;;;4988593;28;20069;-82
2023/01/30 05:01:40;;;;;;;15.05;2.85;;;;;;;;;;4986828;28;20150;-82
2023/01/30 05:04:07;;;;;;;19.63;3.58;;;;;;;;;;4981821;28;20044;-82
2023/01/30 05:06:35;;;;;;;14.93;2.70;;;;;;;;;;4988755;28;20153;-82
2023/01/30 05:09:02;;;;;;;13.82;2.67;;;;;;;;;;4976994;28;20052;-82
2023/01/30 05:11:28;;;;;;;13.80;2.90;;;;;;;;;;4969096;28;20082;-82
2023/01/30 05:13:55;;;;;;;10.23;2.33;;;;;;;;;;4968402;28;20588;-81
2023/01/30 05:16:22;;;;;;;7.78;2.33;;;;;;;;;;4985127;28;20949;-82
2023/01/30 05:18:49;;;;;;;15.50;2.83;;;;;;;;;;4988742;28;20234;-82
2023/01/30 05:21:17;;;;;;;15.75;2.63;;;;;;;;;;4979783;28;20543;-82
2023/01/30 05:23:44;;;;;;;11.95;2.55;;;;;;;;;;4973569;28;20564;-82
2023/01/30 05:26:14;;;;;;;12.15;2.50;;;;;;;;;;4986253;28;20057;-82
2023/01/30 05:28:42;;;;;;;15.00;3.30;;;;;;;;;;4986234;28;20114;-82
2023/01/30 05:31:10;;;;;;;10.88;2.40;;;;;;;;;;4987967;28;20157;-82
2023/01/30 05:33:37;;;;;;;11.30;2.63;;;;;;;;;;5035199;28;20052;-82
2023/01/30 05:36:03;;;;;;;15.18;2.55;;;;;;;;;;5069151;28;20056;-82
2023/01/30 05:38:30;;;;;;;10.90;2.50;;;;;;;;;;5068247;28;20056;-82
2023/01/30 05:40:57;;;;;;;10.30;1.88;;;;;;;;;;5070076;28;20084;-82
2023/01/30 05:43:23;;;;;;;14.82;2.83;;;;;;;;;;5049640;28;20176;-82
2023/01/30 05:45:57;;;;;;;10.55;2.50;;;;;;;;;;5069730;28;20057;-82
2023/01/30 05:48:23;;;;;;;10.20;2.90;;;;;;;;;;5055893;28;20060;-82
2023/01/30 05:50:50;;;;;;;11.85;2.30;;;;;;;;;;5069267;28;20443;-82
2023/01/30 05:53:21;;;;;;;13.00;2.15;;;;;;;;;;5050575;28;20045;-82
2023/01/30 05:56:13;;;;;;;16.30;2.88;;;;;;;;;;5040432;28;20053;-83
2023/01/30 05:58:40;;;;;;;12.65;2.15;;;;;;;;;;5035355;28;20163;-84
2023/01/30 06:01:08;;;;;;;16.27;2.47;;;;;;;;;;5067975;28;20061;-84
2023/01/30 06:03:35;;;;;;;9.98;2.28;;;;;;;;;;5047754;28;20046;-84
2023/01/30 06:06:02;;;;;;;13.05;2.75;;;;;;;;;;5068529;28;20623;-84
2023/01/30 06:08:28;;;;;;;15.25;2.47;;;;;;;;;;5064750;28;20231;-84
2023/01/30 06:10:59;;;;;;;22.20;2.80;;;;;;;;;;5067963;28;20059;-84
2023/01/30 06:13:28;;;;;;;22.13;2.53;;;;;;;;;;5038948;28;20148;-84
2023/01/30 06:15:54;;;;;;;21.35;3.17;;;;;;;;;;5067694;28;20053;-84
2023/01/30 06:18:20;;;;;;;17.52;2.65;;;;;;;;;;5064528;28;20063;-84
2023/01/30 06:20:48;;;;;;;15.90;2.63;;;;;;;;;;5065417;28;20045;-84
2023/01/30 06:23:14;;;;;;;13.65;2.67;;;;;;;;;;5067503;28;20499;-84
2023/01/30 06:25:47;;;;;;;17.02;2.65;;;;;;;;;;5045660;28;20582;-84
2023/01/30 06:28:14;;;;;;;16.23;2.75;;;;;;;;;;5063477;28;20061;-84
2023/01/30 06:30:41;;;;;;;18.92;2.75;;;;;;;;;;5047360;28;20046;-84
2023/01/30 06:33:08;;;;;;;17.65;2.85;;;;;;;;;;5049186;28;20058;-84
2023/01/30 06:35:38;;;;;;;15.88;2.85;;;;;;;;;;5064890;28;20053;-84
2023/01/30 06:38:04;;;;;;;24.33;2.78;;;;;;;;;;5065963;28;20061;-83
2023/01/30 06:40:31;;;;;;;15.68;2.60;;;;;;;;;;5067319;28;20053;-84
2023/01/30 06:43:00;;;;;;;16.10;2.38;;;;;;;;;;5067946;28;20061;-83
2023/01/30 06:45:26;;;;;;;16.17;2.17;;;;;;;;;;5064466;28;20057;-84
2023/01/30 06:47:53;;;;;;;15.02;2.75;;;;;;;;;;5065823;28;20144;-84
2023/01/30 06:50:21;;;;;;;25.25;3.03;;;;;;;;;;5044078;28;20546;-84
2023/01/30 06:52:48;;;;;;;18.67;2.47;;;;;;;;;;5049253;28;20088;-84
2023/01/30 06:55:15;;;;;;;19.88;3.25;;;;;;;;;;5066396;28;20045;-84
2023/01/30 06:57:43;;;;;;;17.48;2.50;;;;;;;;;;5064996;28;20099;-84
2023/01/30 07:00:11;;;;;;;20.25;2.88;;;;;;;;;;5045385;28;20064;-84
2023/01/30 07:02:37;;;;;;;22.35;2.70;;;;;;;;;;5060801;28;20092;-84
2023/01/30 07:05:05;;;;;;;20.85;3.00;;;;;;;;;;5047621;28;20409;-84
2023/01/30 07:07:31;;;;;;;16.55;2.95;;;;;;;;;;5065446;28;20091;-84
2023/01/30 07:09:58;;;;;;;19.33;2.72;;;;;;;;;;5065691;28;20131;-84
2023/01/30 07:12:33;;;;;;;21.60;2.55;;;;;;;;;;5066212;28;20061;-84
2023/01/30 07:15:00;;;;;;;12.60;1.98;;;;;;;;;;5063743;28;20053;-84
2023/01/30 07:17:26;;;;;;;14.73;2.35;;;;;;;;;;5065663;28;20176;-84
2023/01/30 07:19:53;;;;;;;18.48;2.88;;;;;;;;;;5060965;28;20058;-84
2023/01/30 07:22:19;;;;;;;12.15;2.05;;;;;;;;;;5046131;28;20121;-84
2023/01/30 07:24:45;;;;;;;22.33;3.10;;;;;;;;;;5066714;28;20362;-84
2023/01/30 07:27:12;;;;;;;15.27;2.25;;;;;;;;;;5064872;28;20056;-84
2023/01/30 07:29:38;;;;;;;21.50;2.70;;;;;;;;;;5064612;28;20588;-84
2023/01/30 07:32:06;;;;;;;17.88;2.10;;;;;;;;;;5065679;28;20049;-83
2023/01/30 07:34:32;;;;;;;16.60;2.70;;;;;;;;;;5064229;28;20057;-84
2023/01/30 07:36:59;;;;;;;18.35;3.35;;;;;;;;;;5065535;28;20146;-84
2023/01/30 07:39:25;;;;;;;20.05;2.67;;;;;;;;;;5046537;28;20079;-84
2023/01/30 07:41:51;;;;;;;14.70;2.22;;;;;;;;;;5067132;28;20068;-84
2023/01/30 07:44:20;;;;;;;15.07;2.65;;;;;;;;;;5065810;28;20111;-84
2023/01/30 07:46:46;;;;;;;18.75;2.58;;;;;;;;;;5064005;28;20140;-83
2023/01/30 07:49:12;;;;;;;22.08;3.55;;;;;;;;;;5060761;28;20065;-84
2023/01/30 07:51:39;;;;;;;15.00;2.22;;;;;;;;;;5066722;28;20053;-84
2023/01/30 07:54:05;;;;;;;17.02;2.75;;;;;;;;;;5060842;28;20492;-84
2023/01/30 07:56:31;;;;;;;26.02;3.10;;;;;;;;;;5048491;28;20064;-82
2023/01/30 07:58:58;;;;;;;21.08;3.00;;;;;;;;;;5038751;28;20132;-81
2023/01/30 08:01:24;;;;;;;17.15;2.45;;;;;;;;;;5068586;28;20053;-81
2023/01/30 08:03:51;;;;;;;24.17;2.95;;;;;;;;;;5066798;28;20057;-81
2023/01/30 08:06:17;;;;;;;20.17;2.30;;;;;;;;;;5069903;28;20075;-82
2023/01/30 08:08:43;;;;;;;14.82;2.80;;;;;;;;;;5072478;28;20643;-82
2023/01/30 08:11:10;;;;;;;12.57;2.25;;;;;;;;;;5068602;28;20074;-81
2023/01/30 08:13:36;;;;;;;22.35;2.50;;;;;;;;;;5072711;28;20144;-82
2023/01/30 08:16:03;;;;;;;18.00;3.08;;;;;;;;;;5072487;28;20431;-81
2023/01/30 08:18:31;;;;;;;23.95;2.85;;;;;;;;;;5072467;28;20578;-81
2023/01/30 08:20:57;;;;;;;14.23;2.70;;;;;;;;;;5060913;28;20558;-82
2023/01/30 08:23:24;;;;;;;14.40;2.92;;;;;;;;;;5035426;28;20057;-83
2023/01/30 08:25:57;;;;;;;18.73;2.83;;;;;;;;;;5035742;28;20049;-81
2023/01/30 08:28:23;;;;;;;17.30;2.63;;;;;;;;;;5051933;28;20524;-82
2023/01/30 08:30:53;;;;;;;19.20;2.72;;;;;;;;;;5067956;28;20057;-82
2023/01/30 08:33:22;;;;;;;20.45;3.15;;;;;;;;;;5067600;28;20049;-82
2023/01/30 08:35:49;;;;;;;17.85;2.85;;;;;;;;;;5073439;28;20061;-82
2023/01/30 08:38:16;;;;;;;18.05;3.03;;;;;;;;;;5060459;28;20064;-82
2023/01/30 08:40:42;;;;;;;15.77;2.10;;;;;;;;;;5063319;28;20053;-82
2023/01/30 08:43:09;;;;;;;20.75;2.08;;;;;;;;;;5073068;28;20057;-81
2023/01/30 08:45:35;;;;;;;15.57;2.28;;;;;;;;;;5078924;28;20067;-82
2023/01/30 08:48:03;;;;;;;19.10;2.55;;;;;;;;;;5067732;28;20057;-82
2023/01/30 08:50:30;;;;;;;11.63;2.38;;;;;;;;;;5040241;28;20085;-82
2023/01/30 08:52:56;;;;;;;11.52;2.10;;;;;;;;;;5064442;28;20559;-82
2023/01/30 08:55:22;;;;;;;16.15;2.53;;;;;;;;;;5059425;28;20418;-82
2023/01/30 08:57:49;;;;;;;19.23;2.55;;;;;;;;;;5036210;28;20113;-81
2023/01/30 09:00:15;;;;;;;18.05;2.42;;;;;;;;;;5080409;28;20063;-82
2023/01/30 09:02:42;;;;;;;16.95;2.55;;;;;;;;;;5075551;28;20930;-82
2023/01/30 09:05:11;;;;;;;18.33;2.88;;;;;;;;;;5077907;28;20512;-81
2023/01/30 09:07:38;;;;;;;14.40;2.67;;;;;;;;;;5089438;28;20049;-82
2023/01/30 09:10:04;;;;;;;21.60;2.50;;;;;;;;;;5092062;28;20814;-81
2023/01/30 09:12:31;;;;;;;10.05;2.15;;;;;;;;;;5045043;28;20053;-81
2023/01/30 09:14:59;;;;;;;17.02;2.63;;;;;;;;;;5092759;28;20063;-82
2023/01/30 09:17:25;;;;;;;16.35;2.83;;;;;;;;;;5090388;28;20052;-82
2023/01/30 09:19:52;;;;;;;21.65;2.33;;;;;;;;;;5066199;28;20341;-81
2023/01/30 09:22:18;;;;;;;18.05;2.83;;;;;;;;;;5053218;28;20139;-82
2023/01/30 09:24:47;;;;;;;25.05;3.58;;;;;;;;;;5070190;28;20508;-82
2023/01/30 09:27:13;;;;;;;19.55;2.60;;;;;;;;;;5077030;28;20093;-82
2023/01/30 09:29:40;;;;;;;21.90;2.47;;;;;;;;;;5075732;28;20057;-82
2023/01/30 09:32:09;;;;;;;18.75;2.63;;;;;;;;;;5074074;28;20550;-82
2023/01/30 09:34:35;;;;;;;15.65;2.25;;;;;;;;;;5075066;28;20061;-82
2023/01/30 09:37:03;;;;;;;18.63;2.97;;;;;;;;;;5056703;28;20136;-82
2023/01/30 09:39:30;;;;;;;19.40;3.42;;;;;;;;;;5071257;28;20061;-82
2023/01/30 09:42:03;;;;;;;10.35;1.92;;;;;;;;;;5073246;28;20092;-82
2023/01/30 09:44:44;;;;;;;15.95;2.67;;;;;;;;;;5072465;28;20059;-82
2023/01/30 09:47:22;;;;;;;11.32;2.63;;;;;;;;;;5056240;28;20316;-82
2023/01/30 09:49:51;;;;;;;14.80;2.33;;;;;;;;;;5072700;28;20797;-82
2023/01/30 09:52:33;;;;;;;15.73;2.97;;;;;;;;;;5065555;28;20050;-81
2023/01/30 09:55:10;;;;;;;15.57;2.28;;;;;;;;;;5072869;28;20085;-83
2023/01/30 09:57:36;;;;;;;20.63;2.92;;;;;;;;;;5054564;28;20107;-83
2023/01/30 10:00:09;;;;;;;20.17;2.13;;;;;;;;;;5072267;28;20473;-83
2023/01/30 10:02:36;;;;;;;13.82;2.30;;;;;;;;;;5070936;28;20931;-83
2023/01/30 10:05:03;;;;;;;20.73;2.70;;;;;;;;;;5074472;28;20056;-83
2023/01/30 10:07:38;;;;;;;18.50;3.22;;;;;;;;;;5079773;28;20088;-84
2023/01/30 10:10:09;;;;;;;11.43;2.00;;;;;;;;;;5055514;28;20446;-83
2023/01/30 10:12:35;;;;;;;15.60;2.58;;;;;;;;;;5084176;28;20214;-83
2023/01/30 10:15:20;;;;;;;20.20;2.63;;;;;;;;;;5079625;28;20569;-83
2023/01/30 10:18:01;;;;;;;14.95;2.17;;;;;;;;;;5073455;28;20052;-83
2023/01/30 10:20:32;;;;;;;20.50;3.25;;;;;;;;;;5068905;28;20049;-83
2023/01/30 10:23:10;;;;;;;19.00;2.47;;;;;;;;;;5072091;28;20053;-84
2023/01/30 10:25:45;;;;;;;16.38;2.45;;;;;;;;;;5072757;28;20053;-83
2023/01/30 10:28:17;;;;;;;14.43;2.42;;;;;;;;;;5072534;28;20397;-83
2023/01/30 10:30:45;;;;;;;14.45;2.58;;;;;;;;;;5072603;28;20060;-84
2023/01/30 10:33:20;;;;;;;14.63;2.17;;;;;;;;;;5070817;28;20119;-83
2023/01/30 10:35:53;;;;;;;25.98;2.70;;;;;;;;;;5072934;28;20044;-85
2023/01/30 10:38:37;;;;;;;19.00;2.60;;;;;;;;;;5067227;28;20648;-84
2023/01/30 10:41:16;;;;;;;15.45;1.92;;;;;;;;;;5062057;28;20136;-84
2023/01/30 10:43:44;;;;;;;14.50;2.40;;;;;;;;;;5064545;28;20057;-84
2023/01/30 10:46:19;;;;;;;16.02;1.95;;;;;;;;;;5050162;28;20053;-83
2023/01/30 10:48:56;;;;;;;21.67;3.05;;;;;;;;;;5049975;28;20048;-82
2023/01/30 10:51:41;;;;;;;14.00;3.25;;;;;;;;;;5070503;28;20088;-83
2023/01/30 10:54:19;;;;;;;18.70;2.90;;;;;;;;;;5065033;28;20056;-84
2023/01/30 10:56:51;;;;;;;15.57;2.38;;;;;;;;;;5069594;28;20420;-83
2023/01/30 10:59:26;;;;;;;18.27;2.50;;;;;;;;;;5069763;28;20063;-84
2023/01/30 11:01:53;;;;;;;11.32;2.33;;;;;;;;;;5048856;28;20041;-82
2023/01/30 11:04:36;;;;;;;18.45;2.72;;;;;;;;;;5050810;28;20060;-82
2023/01/30 11:07:03;;;;;;;14.05;2.47;;;;;;;;;;5064050;28;20053;-84
2023/01/30 11:09:43;;;;;;;11.73;2.30;;;;;;;;;;5070133;28;20147;-83
2023/01/30 11:12:09;;;;;;;17.90;1.80;;;;;;;;;;5068736;28;20063;-83
2023/01/30 11:14:55;;;;;;;17.88;3.00;;;;;;;;;;5062249;28;20057;-83
2023/01/30 11:17:28;;;;;;;24.88;2.53;;;;;;;;;;5047998;28;20837;-83
2023/01/30 11:19:55;;;;;;;17.10;2.60;;;;;;;;;;5048923;28;20136;-83
2023/01/30 11:22:24;;;;;;;19.63;2.97;;;;;;;;;;5067195;28;20065;-83
2023/01/30 11:24:59;;;;;;;21.35;4.05;;;;;;;;;;5053393;28;20049;-83
2023/01/30 11:27:33;;;;;;;17.17;2.50;;;;;;;;;;5052600;28;20056;-84
2023/01/30 11:30:02;;;;;;;18.33;2.83;;;;;;;;;;5071334;28;20093;-84
2023/01/30 11:32:28;;;;;;;13.57;2.35;;;;;;;;;;5071516;28;20061;-83
2023/01/30 11:35:03;;;;;;;20.35;2.55;;;;;;;;;;5063622;28;20103;-84
2023/01/30 11:37:31;;;;;;;20.75;2.72;;;;;;;;;;5066463;28;20131;-84
2023/01/30 11:39:57;;;;;;;19.95;2.55;;;;;;;;;;5047595;28;20053;-84
2023/01/30 11:42:28;;;;;;;13.23;2.80;;;;;;;;;;5061734;28;20059;-83
2023/01/30 11:44:57;;;;;;;15.07;2.53;;;;;;;;;;5070156;28;20057;-83
2023/01/30 11:47:51;;;;;;;17.30;3.00;;;;;;;;;;5069887;28;20052;-83
2023/01/30 11:50:39;;;;;;;22.65;2.20;;;;;;;;;;5069645;28;20053;-83
2023/01/30 11:53:22;;;;;;;16.13;2.35;;;;;;;;;;5061362;28;20053;-86
2023/01/30 11:55:49;;;;;;;16.45;2.92;;;;;;;;;;5050852;28;20104;-84
2023/01/30 11:58:32;;;;;;;25.15;2.90;;;;;;;;;;5067963;28;20177;-84
2023/01/30 12:00:59;;;;;;;19.55;2.55;;;;;;;;;;5071976;28;20053;-84
2023/01/30 12:03:28;;;;;;;19.17;2.53;;;;;;;;;;5072285;28;20060;-81
2023/01/30 12:05:56;;;;;;;15.57;2.47;;;;;;;;;;5068446;28;20057;-81
2023/01/30 12:08:24;;;;;;;11.38;2.17;;;;;;;;;;5067446;28;20049;-82
2023/01/30 12:11:22;;;;;;;15.57;2.63;;;;;;;;;;5041511;28;20033;-81
2023/01/30 12:13:49;;;;;;;17.95;2.92;;;;;;;;;;5066917;28;20056;-82
2023/01/30 12:16:22;;;;;;;19.05;2.67;;;;;;;;;;5071302;28;20134;-83
2023/01/30 12:18:57;;;;;;;24.73;3.58;;;;;;;;;;5071138;28;20524;-83
2023/01/30 12:21:42;;;;;;;17.63;2.70;;;;;;;;;;5069200;28;20060;-82
2023/01/30 12:24:19;;;;;;;16.95;3.20;;;;;;;;;;5069195;28;20064;-82
2023/01/30 12:26:48;;;;;;;19.20;3.20;;;;;;;;;;5065250;28;20434;-83
2023/01/30 12:29:24;;;;;;;18.80;2.97;;;;;;;;;;5063473;28;20497;-81
2023/01/30 12:31:54;;;;;;;12.48;2.50;;;;;;;;;;5048616;28;20559;-81
2023/01/30 12:34:21;;;;;;;19.35;2.53;;;;;;;;;;5059350;28;20085;-82
2023/01/30 12:36:55;;;;;;;14.05;2.60;;;;;;;;;;5053492;28;20064;-83
2023/01/30 12:39:28;;;;;;;18.52;3.15;;;;;;;;;;5067922;28;20060;-82
2023/01/30 12:41:54;;;;;;;20.13;2.40;;;;;;;;;;5071178;28;20591;-83
2023/01/30 12:44:33;;;;;;;14.85;2.40;;;;;;;;;;5058696;28;20968;-82
2023/01/30 12:46:59;;;;;;;19.52;2.65;;;;;;;;;;5057509;28;20053;-83
2023/01/30 12:49:35;;;;;;;17.25;2.33;;;;;;;;;;5050934;28;20057;-84
2023/01/30 12:52:07;;;;;;;18.75;3.15;;;;;;;;;;5068233;28;20115;-83
2023/01/30 12:54:45;;;;;;;16.35;2.80;;;;;;;;;;5069910;28;20127;-84
2023/01/30 12:57:17;;;;;;;18.20;3.47;;;;;;;;;;5069157;28;20571;-84
2023/01/30 12:59:56;;;;;;;26.98;3.50;;;;;;;;;;5064363;28;20057;-83
2023/01/30 13:02:35;;;;;;;20.98;2.33;;;;;;;;;;5060708;28;20057;-82
2023/01/30 13:05:21;;;;;;;19.70;2.15;;;;;;;;;;5067475;28;20065;-82
2023/01/30 13:07:50;;;;;;;16.08;2.90;;;;;;;;;;5067352;28;20062;-82
2023/01/30 13:10:23;;;;;;;11.13;2.10;;;;;;;;;;5047724;28;20081;-83
2023/01/30 13:12:52;;;;;;;23.58;2.72;;;;;;;;;;5056631;28;20057;-82
2023/01/30 13:15:25;;;;;;;18.30;2.85;;;;;;;;;;5064910;28;20068;-82
2023/01/30 13:18:07;;;;;;;24.60;2.80;;;;;;;;;;5069284;28;20053;-81
2023/01/30 13:20:34;;;;;;;20.90;2.85;;;;;;;;;;5045947;28;20518;-83
2023/01/30 13:23:03;;;;;;;22.58;2.70;;;;;;;;;;5070798;28;20045;-82
2023/01/30 13:25:32;;;;;;;24.35;3.40;;;;;;;;;;5070463;28;20068;-84
2023/01/30 13:28:01;;;;;;;22.17;3.35;;;;;;;;;;5069381;28;20613;-82
2023/01/30 13:30:28;;;;;;;21.25;2.97;;;;;;;;;;5070380;28;20053;-84
2023/01/30 13:32:56;;;;;;;19.42;2.97;;;;;;;;;;5061907;28;20079;-82
2023/01/30 13:35:28;;;;;;;18.65;2.20;;;;;;;;;;5052533;28;20049;-81
2023/01/30 13:37:56;;;;;;;20.80;2.78;;;;;;;;;;5042815;28;20049;-82
2023/01/30 13:40:33;;;;;;;12.18;2.20;;;;;;;;;;5064879;28;20049;-84
2023/01/30 13:43:03;;;;;;;19.85;3.10;;;;;;;;;;5061510;28;20057;-82
2023/01/30 13:45:32;;;;;;;22.60;2.85;;;;;;;;;;5068749;28;20077;-81
2023/01/30 13:48:06;;;;;;;19.50;2.25;;;;;;;;;;5052387;28;20859;-83
2023/01/30 13:50:39;;;;;;;15.65;2.65;;;;;;;;;;5067972;28;20048;-84
2023/01/30 13:53:10;;;;;;;15.02;2.20;;;;;;;;;;5067070;28;20059;-83
2023/01/30 13:55:55;;;;;;;13.18;2.33;;;;;;;;;;5049110;28;20054;-84
2023/01/30 13:58:42;;;;;;;18.80;2.30;;;;;;;;;;5055288;28;20059;-83
2023/01/30 14:01:13;;;;;;;13.68;2.17;;;;;;;;;;5068176;28;20899;-83
2023/01/30 14:03:40;;;;;;;20.30;2.53;;;;;;;;;;5069387;28;20059;-83
2023/01/30 14:06:10;;;;;;;16.63;2.58;;;;;;;;;;5068795;28;20064;-82
2023/01/30 14:08:40;;;;;;;14.77;2.17;;;;;;;;;;5048026;28;20037;-82
2023/01/30 14:11:27;;;;;;;16.63;3.05;;;;;;;;;;5071165;28;20128;-83
2023/01/30 14:13:58;;;;;;;20.33;2.45;;;;;;;;;;5067986;28;20065;-84
2023/01/30 14:16:38;;;;;;;15.63;2.45;;;;;;;;;;5051611;28;20690;-81
2023/01/30 14:19:19;;;;;;;18.45;2.88;;;;;;;;;;5057021;28;20513;-82
2023/01/30 14:21:56;;;;;;;14.18;1.98;;;;;;;;;;5049993;28;20559;-84
2023/01/30 14:24:30;;;;;;;18.55;2.97;;;;;;;;;;5036600;28;20065;-84
2023/01/30 14:26:56;;;;;;;18.10;2.15;;;;;;;;;;5042382;28;20519;-83
2023/01/30 14:29:39;;;;;;;20.85;2.42;;;;;;;;;;5070046;28;20570;-82
2023/01/30 14:32:12;;;;;;;25.27;3.53;;;;;;;;;;5069542;28;20561;-82
2023/01/30 14:34:42;;;;;;;16.60;2.47;;;;;;;;;;5048644;28;20061;-83
2023/01/30 14:37:27;;;;;;;21.20;3.05;;;;;;;;;;5060040;28;20060;-86
2023/01/30 14:39:54;;;;;;;16.08;2.55;;;;;;;;;;5050627;28;20061;-83
2023/01/30 14:42:20;;;;;;;21.45;2.60;;;;;;;;;;5043007;28;20064;-82
2023/01/30 14:44:54;;;;;;;19.50;3.15;;;;;;;;;;5063656;28;20618;-82
2023/01/30 14:47:21;;;;;;;14.85;2.88;;;;;;;;;;5065268;28;20140;-82
2023/01/30 14:50:19;;;;;;;18.13;2.83;;;;;;;;;;5066086;28;20048;-82
2023/01/30 14:52:48;;;;;;;23.88;4.10;;;;;;;;;;5048327;28;20495;-83
2023/01/30 14:55:25;;;;;;;14.75;2.47;;;;;;;;;;5061300;28;20106;-81
2023/01/30 14:57:54;;;;;;;22.10;2.40;;;;;;;;;;5047454;28;20519;-83
2023/01/30 15:00:24;;;;;;;16.52;3.00;;;;;;;;;;5059834;28;20099;-83
2023/01/30 15:02:52;;;;;;;17.00;2.28;;;;;;;;;;5065078;28;20625;-84
2023/01/30 15:05:25;;;;;;;18.48;2.22;;;;;;;;;;5065421;28;20499;-83
2023/01/30 15:07:55;;;;;;;20.65;2.70;;;;;;;;;;5047969;28;20513;-83
2023/01/30 15:10:40;;;;;;;17.85;2.95;;;;;;;;;;5058064;28;20504;-83
2023/01/30 15:13:10;;;;;;;14.90;1.90;;;;;;;;;;5068614;28;20965;-84
2023/01/30 15:15:50;;;;;;;14.35;2.50;;;;;;;;;;5065050;28;20140;-83
2023/01/30 15:18:23;;;;;;;14.18;2.35;;;;;;;;;;5040708;28;20119;-82
2023/01/30 15:21:14;;;;;;;17.63;3.30;;;;;;;;;;5054259;28;20543;-83
2023/01/30 15:23:53;;;;;;;14.45;2.10;;;;;;;;;;5065161;28;20139;-83
2023/01/30 15:26:28;;;;;;;18.52;2.55;;;;;;;;;;5070728;28;20069;-83
2023/01/30 15:29:10;;;;;;;18.63;2.53;;;;;;;;;;5068290;28;20036;-82
2023/01/30 15:31:36;;;;;;;21.48;2.53;;;;;;;;;;5066069;28;20061;-84
2023/01/30 15:34:17;;;;;;;20.80;2.88;;;;;;;;;;5038216;28;20049;-83
2023/01/30 15:36:43;;;;;;;19.55;2.50;;;;;;;;;;5059954;28;20048;-83
2023/01/30 15:39:20;;;;;;;18.73;2.55;;;;;;;;;;5067073;28;20057;-84